createdAt,value
2018-07-31T00:00:02.223Z,16.08
2018-07-31T00:01:02.243Z,16.09
2018-07-31T00:02:02.282Z,16.10
2018-07-31T00:03:02.290Z,16.13
2018-07-31T00:04:02.273Z,16.09
2018-07-31T00:05:02.362Z,16.09
2018-07-31T00:06:02.288Z,16.12
2018-07-31T00:07:02.310Z,16.06
2018-07-31T00:08:02.346Z,16.09
2018-07-31T00:09:02.312Z,16.16
2018-07-31T00:10:02.425Z,16.10
2018-07-31T00:11:02.363Z,16.16
2018-07-31T00:12:02.350Z,16.17
2018-07-31T00:13:02.411Z,16.21
2018-07-31T00:14:02.392Z,16.17
2018-07-31T00:15:02.520Z,16.22
2018-07-31T00:16:02.565Z,16.21
2018-07-31T00:17:02.446Z,16.21
2018-07-31T00:18:02.557Z,16.17
2018-07-31T00:19:02.493Z,16.13
2018-07-31T00:20:02.465Z,16.21
2018-07-31T00:21:02.711Z,16.29
2018-07-31T00:22:02.498Z,16.22
2018-07-31T00:23:02.538Z,16.28
2018-07-31T00:24:02.516Z,16.18
2018-07-31T00:25:02.546Z,16.09
2018-07-31T00:26:02.678Z,16.03
2018-07-31T00:27:02.546Z,16.00
2018-07-31T00:28:02.558Z,15.99
2018-07-31T00:29:02.563Z,16.02
2018-07-31T00:30:02.591Z,15.98
2018-07-31T00:31:02.744Z,16.03
2018-07-31T00:32:02.655Z,15.94
2018-07-31T00:33:02.608Z,15.94
2018-07-31T00:34:02.656Z,15.83
2018-07-31T00:35:02.660Z,15.90
2018-07-31T00:36:02.786Z,15.92
2018-07-31T00:37:02.673Z,15.96
2018-07-31T00:38:02.741Z,15.92
2018-07-31T00:39:02.717Z,15.92
2018-07-31T00:40:02.718Z,16.00
2018-07-31T00:41:02.829Z,16.03
2018-07-31T00:42:02.737Z,16.00
2018-07-31T00:43:02.753Z,16.05
2018-07-31T00:44:02.785Z,16.05
2018-07-31T00:45:02.804Z,16.00
2018-07-31T00:46:02.913Z,15.94
2018-07-31T00:47:02.793Z,15.99
2018-07-31T00:48:02.888Z,15.99
2018-07-31T00:49:02.859Z,16.02
2018-07-31T00:50:02.868Z,15.98
2018-07-31T00:51:02.865Z,16.03
2018-07-31T00:52:02.844Z,15.99
2018-07-31T00:53:02.982Z,15.94
2018-07-31T00:54:02.870Z,15.88
2018-07-31T00:55:02.888Z,15.87
2018-07-31T00:56:02.900Z,15.91
2018-07-31T00:57:02.916Z,15.90
2018-07-31T00:58:03.042Z,15.90
2018-07-31T00:59:02.975Z,15.90
2018-07-31T01:00:02.964Z,15.87
2018-07-31T01:01:02.979Z,15.92
2018-07-31T01:02:03.021Z,15.98
2018-07-31T01:03:03.020Z,15.96
2018-07-31T01:04:03.112Z,16.02
2018-07-31T01:05:03.013Z,15.91
2018-07-31T01:06:03.158Z,15.90
2018-07-31T01:07:03.047Z,15.88
2018-07-31T01:08:03.034Z,15.88
2018-07-31T01:09:03.039Z,15.90
2018-07-31T01:10:03.104Z,15.88
2018-07-31T01:11:03.212Z,15.88
2018-07-31T01:12:03.309Z,15.91
2018-07-31T01:13:03.109Z,15.92
2018-07-31T01:14:03.126Z,15.96
2018-07-31T01:15:03.127Z,15.99
2018-07-31T01:16:03.261Z,16.02
2018-07-31T01:17:03.305Z,16.05
2018-07-31T01:18:03.182Z,16.00
2018-07-31T01:19:03.181Z,15.98
2018-07-31T01:20:03.242Z,15.91
2018-07-31T01:22:03.342Z,15.92
2018-07-31T01:23:03.250Z,15.92
2018-07-31T01:24:03.244Z,15.94
2018-07-31T01:25:03.240Z,15.94
2018-07-31T01:26:03.294Z,15.98
2018-07-31T01:27:03.487Z,16.00
2018-07-31T01:28:03.280Z,16.00
2018-07-31T01:29:03.326Z,15.96
2018-07-31T01:30:03.306Z,15.98
2018-07-31T01:31:03.353Z,16.02
2018-07-31T01:32:03.450Z,16.02
2018-07-31T01:33:03.328Z,16.03
2018-07-31T01:34:03.383Z,15.99
2018-07-31T01:35:03.482Z,15.98
2018-07-31T01:36:03.416Z,16.00
2018-07-31T01:37:03.491Z,16.00
2018-07-31T01:38:03.407Z,15.96
2018-07-31T01:39:03.438Z,15.96
2018-07-31T01:40:03.545Z,15.99
2018-07-31T01:41:03.444Z,15.99
2018-07-31T01:42:03.645Z,15.98
2018-07-31T01:43:03.577Z,15.98
2018-07-31T01:44:03.473Z,16.00
2018-07-31T01:45:03.518Z,15.92
2018-07-31T01:46:03.577Z,15.98
2018-07-31T01:47:03.599Z,15.96
2018-07-31T01:48:03.536Z,15.96
2018-07-31T01:49:03.535Z,15.88
2018-07-31T01:50:03.566Z,15.88
2018-07-31T01:51:03.557Z,15.91
2018-07-31T01:52:03.701Z,15.88
2018-07-31T01:53:03.607Z,15.91
2018-07-31T01:54:03.589Z,15.87
2018-07-31T01:55:03.596Z,15.85
2018-07-31T01:56:03.736Z,15.87
2018-07-31T01:57:03.723Z,15.92
2018-07-31T01:58:03.635Z,15.98
2018-07-31T01:59:03.688Z,15.92
2018-07-31T02:00:03.642Z,15.87
2018-07-31T02:01:03.718Z,15.91
2018-07-31T02:02:03.778Z,15.88
2018-07-31T02:03:03.712Z,15.90
2018-07-31T02:04:03.702Z,15.90
2018-07-31T02:05:03.834Z,15.96
2018-07-31T02:06:03.734Z,16.03
2018-07-31T02:07:03.959Z,16.00
2018-07-31T02:08:03.764Z,15.99
2018-07-31T02:09:03.772Z,15.92
2018-07-31T02:10:03.772Z,15.98
2018-07-31T02:11:03.774Z,16.02
2018-07-31T02:12:03.895Z,16.00
2018-07-31T02:13:03.810Z,15.99
2018-07-31T02:14:03.830Z,15.96
2018-07-31T02:15:03.833Z,16.05
2018-07-31T02:16:03.871Z,16.02
2018-07-31T02:17:07.386Z,16.02
2018-07-31T02:18:03.857Z,16.10
2018-07-31T02:19:03.892Z,16.16
2018-07-31T02:20:03.890Z,16.16
2018-07-31T02:21:03.903Z,16.08
2018-07-31T02:22:04.020Z,16.13
2018-07-31T02:23:03.955Z,16.09
2018-07-31T02:24:03.939Z,16.29
2018-07-31T02:25:03.964Z,16.21
2018-07-31T02:26:03.968Z,16.18
2018-07-31T02:27:04.080Z,16.24
2018-07-31T02:28:04.086Z,16.25
2018-07-31T02:29:04.021Z,16.17
2018-07-31T02:30:04.006Z,16.25
2018-07-31T02:31:04.026Z,16.08
2018-07-31T02:32:04.057Z,16.17
2018-07-31T02:33:04.139Z,16.21
2018-07-31T02:34:04.069Z,16.18
2018-07-31T02:35:04.065Z,16.17
2018-07-31T02:36:04.083Z,16.25
2018-07-31T02:37:04.088Z,16.18
2018-07-31T02:38:04.102Z,16.08
2018-07-31T02:39:04.208Z,16.09
2018-07-31T02:40:04.120Z,16.09
2018-07-31T02:41:04.153Z,16.09
2018-07-31T02:42:04.164Z,16.09
2018-07-31T02:43:04.284Z,16.13
2018-07-31T02:44:04.296Z,15.96
2018-07-31T02:45:04.295Z,16.02
2018-07-31T02:46:04.210Z,15.91
2018-07-31T02:47:04.216Z,15.98
2018-07-31T02:48:04.217Z,15.92
2018-07-31T02:49:04.245Z,15.98
2018-07-31T02:50:04.342Z,15.91
2018-07-31T02:51:04.257Z,15.96
2018-07-31T02:52:04.279Z,15.92
2018-07-31T02:53:04.409Z,15.94
2018-07-31T02:54:04.418Z,15.91
2018-07-31T02:55:04.296Z,15.99
2018-07-31T02:56:04.458Z,15.91
2018-07-31T02:57:04.333Z,15.90
2018-07-31T02:58:04.413Z,15.81
2018-07-31T02:59:04.356Z,15.85
2018-07-31T03:00:04.367Z,15.85
2018-07-31T03:01:04.572Z,15.91
2018-07-31T03:02:04.511Z,15.85
2018-07-31T03:03:04.527Z,15.91
2018-07-31T03:04:04.426Z,15.90
2018-07-31T03:05:04.485Z,16.03
2018-07-31T03:06:04.537Z,15.94
2018-07-31T03:07:04.446Z,16.03
2018-07-31T03:08:04.612Z,15.92
2018-07-31T03:09:04.465Z,15.91
2018-07-31T03:10:04.502Z,15.85
2018-07-31T03:11:04.541Z,15.84
2018-07-31T03:12:04.634Z,15.88
2018-07-31T03:13:04.514Z,15.92
2018-07-31T03:14:04.520Z,15.96
2018-07-31T03:15:04.667Z,15.92
2018-07-31T03:16:04.815Z,15.91
2018-07-31T03:17:04.584Z,15.90
2018-07-31T03:18:04.588Z,15.91
2018-07-31T03:19:04.605Z,15.91
2018-07-31T03:20:04.608Z,15.91
2018-07-31T03:21:04.844Z,15.90
2018-07-31T03:22:04.751Z,15.96
2018-07-31T03:23:04.635Z,16.06
2018-07-31T03:24:04.695Z,15.98
2018-07-31T03:25:04.666Z,15.92
2018-07-31T03:26:04.807Z,15.92
2018-07-31T03:27:04.685Z,15.91
2018-07-31T03:28:04.765Z,15.98
2018-07-31T03:29:04.750Z,15.99
2018-07-31T03:30:04.733Z,15.88
2018-07-31T03:31:04.959Z,15.90
2018-07-31T03:32:04.788Z,15.85
2018-07-31T03:33:04.761Z,15.81
2018-07-31T03:34:04.820Z,15.84
2018-07-31T03:35:04.831Z,15.83
2018-07-31T03:36:04.797Z,15.81
2018-07-31T03:37:05.070Z,15.84
2018-07-31T03:38:04.806Z,15.88
2018-07-31T03:39:04.834Z,15.88
2018-07-31T03:40:04.848Z,15.88
2018-07-31T03:41:04.843Z,15.92
2018-07-31T03:42:04.868Z,15.96
2018-07-31T03:43:05.102Z,15.92
2018-07-31T03:44:04.895Z,15.91
2018-07-31T03:45:04.949Z,15.88
2018-07-31T03:46:05.081Z,15.85
2018-07-31T03:47:04.920Z,15.78
2018-07-31T03:48:04.960Z,15.81
2018-07-31T03:49:05.281Z,15.87
2018-07-31T03:50:05.057Z,15.90
2018-07-31T03:51:04.972Z,15.91
2018-07-31T03:52:05.112Z,15.91
2018-07-31T03:53:05.005Z,15.92
2018-07-31T03:54:05.117Z,15.91
2018-07-31T03:55:05.028Z,16.02
2018-07-31T03:56:05.038Z,15.98
2018-07-31T03:57:05.088Z,15.96
2018-07-31T03:58:05.181Z,15.99
2018-07-31T03:59:05.082Z,16.02
2018-07-31T04:00:05.495Z,15.99
2018-07-31T04:01:05.097Z,16.05
2018-07-31T04:02:05.109Z,16.03
2018-07-31T04:03:05.244Z,16.06
2018-07-31T04:04:05.257Z,16.13
2018-07-31T04:05:05.261Z,16.12
2018-07-31T04:06:05.367Z,16.08
2018-07-31T04:07:05.168Z,16.06
2018-07-31T04:08:05.173Z,16.12
2018-07-31T04:09:05.195Z,16.09
2018-07-31T04:10:05.189Z,16.08
2018-07-31T04:11:05.335Z,16.16
2018-07-31T04:12:05.552Z,16.16
2018-07-31T04:13:05.364Z,16.09
2018-07-31T04:14:05.251Z,16.06
2018-07-31T04:15:05.257Z,16.16
2018-07-31T04:16:05.271Z,16.16
2018-07-31T04:17:05.452Z,16.08
2018-07-31T04:18:05.490Z,16.16
2018-07-31T04:19:05.310Z,16.16
2018-07-31T04:20:05.325Z,16.22
2018-07-31T04:21:05.335Z,16.21
2018-07-31T04:22:05.353Z,16.24
2018-07-31T04:23:05.451Z,16.29
2018-07-31T04:24:05.573Z,16.31
2018-07-31T04:25:05.375Z,16.22
2018-07-31T04:26:05.516Z,16.31
2018-07-31T04:27:05.530Z,16.37
2018-07-31T04:28:05.415Z,16.26
2018-07-31T04:29:05.873Z,16.28
2018-07-31T04:30:05.571Z,16.32
2018-07-31T04:31:05.462Z,16.22
2018-07-31T04:32:05.592Z,16.17
2018-07-31T04:33:05.493Z,16.17
2018-07-31T04:34:05.693Z,16.09
2018-07-31T04:35:05.524Z,16.09
2018-07-31T04:36:05.557Z,16.06
2018-07-31T04:37:05.536Z,15.98
2018-07-31T04:38:05.541Z,15.94
2018-07-31T04:39:05.763Z,15.99
2018-07-31T04:40:05.569Z,15.91
2018-07-31T04:41:05.631Z,15.91
2018-07-31T04:42:05.597Z,15.81
2018-07-31T04:43:05.604Z,15.83
2018-07-31T04:44:05.855Z,15.84
2018-07-31T04:45:05.628Z,15.88
2018-07-31T04:46:05.640Z,15.80
2018-07-31T04:47:05.651Z,15.83
2018-07-31T04:48:05.658Z,15.76
2018-07-31T04:49:05.778Z,15.76
2018-07-31T04:50:05.693Z,15.83
2018-07-31T04:51:05.708Z,15.72
2018-07-31T04:52:05.703Z,15.70
2018-07-31T04:53:05.726Z,15.69
2018-07-31T04:54:05.845Z,15.72
2018-07-31T04:55:05.747Z,15.75
2018-07-31T04:56:05.880Z,15.65
2018-07-31T04:57:05.816Z,15.66
2018-07-31T04:58:05.789Z,15.73
2018-07-31T04:59:05.929Z,15.75
2018-07-31T05:00:05.936Z,15.73
2018-07-31T05:01:05.834Z,15.66
2018-07-31T05:02:05.824Z,15.66
2018-07-31T05:03:05.852Z,15.69
2018-07-31T05:04:05.953Z,15.65
2018-07-31T05:05:05.993Z,15.67
2018-07-31T05:06:05.889Z,15.63
2018-07-31T05:07:06.017Z,15.60
2018-07-31T05:08:05.916Z,15.73
2018-07-31T05:09:05.926Z,15.67
2018-07-31T05:10:06.153Z,15.60
2018-07-31T05:11:06.017Z,15.63
2018-07-31T05:12:05.952Z,15.65
2018-07-31T05:13:05.957Z,15.63
2018-07-31T05:14:05.982Z,15.72
2018-07-31T05:15:05.984Z,15.65
2018-07-31T05:16:06.114Z,15.59
2018-07-31T05:17:06.136Z,15.59
2018-07-31T05:18:06.034Z,15.62
2018-07-31T05:19:06.032Z,15.60
2018-07-31T05:20:06.049Z,15.59
2018-07-31T05:21:06.183Z,15.57
2018-07-31T05:22:06.177Z,15.54
2018-07-31T05:23:06.082Z,15.62
2018-07-31T05:24:06.094Z,15.57
2018-07-31T05:25:06.143Z,15.54
2018-07-31T05:26:06.128Z,15.60
2018-07-31T05:27:06.173Z,15.51
2018-07-31T05:28:06.249Z,15.54
2018-07-31T05:29:06.169Z,15.60
2018-07-31T05:30:06.172Z,15.55
2018-07-31T05:31:06.182Z,15.55
2018-07-31T05:32:06.232Z,15.51
2018-07-31T05:33:06.305Z,15.55
2018-07-31T05:34:06.205Z,15.48
2018-07-31T05:35:06.352Z,15.44
2018-07-31T05:36:06.285Z,15.47
2018-07-31T05:37:06.255Z,15.43
2018-07-31T05:38:06.280Z,15.44
2018-07-31T05:39:06.395Z,15.39
2018-07-31T05:40:06.301Z,15.47
2018-07-31T05:41:06.301Z,15.47
2018-07-31T05:42:06.318Z,15.43
2018-07-31T05:43:06.445Z,15.47
2018-07-31T05:44:06.327Z,15.41
2018-07-31T05:45:06.480Z,15.41
2018-07-31T05:46:06.484Z,15.41
2018-07-31T05:47:06.405Z,15.50
2018-07-31T05:48:06.383Z,15.48
2018-07-31T05:49:06.442Z,15.47
2018-07-31T05:50:06.501Z,15.51
2018-07-31T05:51:06.536Z,15.50
2018-07-31T05:52:06.421Z,15.57
2018-07-31T05:53:06.429Z,15.62
2018-07-31T05:54:06.576Z,15.59
2018-07-31T05:55:06.685Z,15.55
2018-07-31T05:56:06.486Z,15.60
2018-07-31T05:57:06.492Z,15.60
2018-07-31T05:58:06.510Z,15.66
2018-07-31T05:59:06.505Z,15.65
2018-07-31T06:00:06.614Z,15.62
2018-07-31T06:01:06.526Z,15.65
2018-07-31T06:02:06.587Z,15.57
2018-07-31T06:03:06.553Z,15.45
2018-07-31T06:04:06.572Z,15.54
2018-07-31T06:05:06.632Z,15.52
2018-07-31T06:06:06.611Z,15.52
2018-07-31T06:07:06.617Z,15.63
2018-07-31T06:08:06.623Z,15.52
2018-07-31T06:09:06.747Z,15.54
2018-07-31T06:10:06.743Z,15.51
2018-07-31T06:11:06.692Z,15.54
2018-07-31T06:12:06.789Z,15.51
2018-07-31T06:13:06.669Z,15.55
2018-07-31T06:14:06.698Z,15.57
2018-07-31T06:15:06.839Z,15.60
2018-07-31T06:16:06.760Z,15.57
2018-07-31T06:17:06.721Z,15.60
2018-07-31T06:18:06.744Z,15.48
2018-07-31T06:19:06.741Z,15.57
2018-07-31T06:20:06.804Z,15.63
2018-07-31T06:21:06.778Z,15.52
2018-07-31T06:22:06.782Z,15.51
2018-07-31T06:23:06.797Z,15.54
2018-07-31T06:24:06.817Z,15.62
2018-07-31T06:25:06.943Z,15.57
2018-07-31T06:26:06.948Z,15.59
2018-07-31T06:27:06.909Z,15.62
2018-07-31T06:28:06.858Z,15.59
2018-07-31T06:29:06.902Z,15.55
2018-07-31T06:30:06.891Z,15.59
2018-07-31T06:31:06.881Z,15.59
2018-07-31T06:32:07.042Z,15.54
2018-07-31T06:33:06.906Z,15.55
2018-07-31T06:34:07.047Z,15.60
2018-07-31T06:35:07.056Z,15.60
2018-07-31T06:36:06.951Z,15.59
2018-07-31T06:37:06.954Z,15.63
2018-07-31T06:38:07.076Z,15.60
2018-07-31T06:39:07.025Z,15.62
2018-07-31T06:40:07.006Z,15.55
2018-07-31T06:41:07.131Z,15.57
2018-07-31T06:42:07.022Z,15.54
2018-07-31T06:43:07.256Z,15.57
2018-07-31T06:44:07.043Z,15.62
2018-07-31T06:45:07.049Z,15.54
2018-07-31T06:46:07.079Z,15.57
2018-07-31T06:47:07.082Z,15.51
2018-07-31T06:48:07.077Z,15.60
2018-07-31T06:49:07.326Z,15.51
2018-07-31T06:50:07.242Z,15.63
2018-07-31T06:51:07.130Z,15.63
2018-07-31T06:52:07.261Z,15.63
2018-07-31T06:53:07.150Z,15.62
2018-07-31T06:54:07.266Z,15.60
2018-07-31T06:55:07.177Z,15.59
2018-07-31T06:56:07.226Z,15.62
2018-07-31T06:57:07.318Z,15.65
2018-07-31T06:58:07.222Z,15.62
2018-07-31T06:59:07.229Z,15.59
2018-07-31T07:00:07.334Z,15.62
2018-07-31T07:01:07.242Z,15.62
2018-07-31T07:02:07.329Z,15.63
2018-07-31T07:03:07.261Z,15.62
2018-07-31T07:04:07.407Z,15.65
2018-07-31T07:05:07.519Z,15.63
2018-07-31T07:06:07.337Z,15.69
2018-07-31T07:07:07.330Z,15.65
2018-07-31T07:08:07.372Z,15.60
2018-07-31T07:09:07.512Z,15.70
2018-07-31T07:10:07.579Z,15.65
2018-07-31T07:11:07.373Z,15.69
2018-07-31T07:12:07.368Z,15.57
2018-07-31T07:13:07.379Z,15.65
2018-07-31T07:14:07.392Z,15.62
2018-07-31T07:15:07.548Z,15.62
2018-07-31T07:16:07.428Z,15.65
2018-07-31T07:17:07.562Z,15.65
2018-07-31T07:18:07.570Z,15.75
2018-07-31T07:19:07.458Z,15.66
2018-07-31T07:20:07.694Z,15.75
2018-07-31T07:21:07.485Z,15.66
2018-07-31T07:22:07.493Z,15.63
2018-07-31T07:23:07.504Z,15.73
2018-07-31T07:24:07.568Z,15.73
2018-07-31T07:25:07.580Z,15.72
2018-07-31T07:26:07.666Z,15.75
2018-07-31T07:27:07.550Z,15.78
2018-07-31T07:28:07.562Z,15.67
2018-07-31T07:29:07.579Z,15.72
2018-07-31T07:30:07.688Z,15.66
2018-07-31T07:31:07.593Z,15.65
2018-07-31T07:32:07.650Z,15.60
2018-07-31T07:33:07.668Z,15.67
2018-07-31T07:34:07.648Z,15.69
2018-07-31T07:35:07.878Z,15.62
2018-07-31T07:36:07.700Z,15.62
2018-07-31T07:37:07.685Z,15.63
2018-07-31T07:38:07.718Z,15.60
2018-07-31T07:39:07.816Z,15.66
2018-07-31T07:40:07.816Z,15.63
2018-07-31T07:41:07.842Z,15.59
2018-07-31T07:42:07.747Z,15.55
2018-07-31T07:43:07.864Z,15.52
2018-07-31T07:44:07.751Z,15.59
2018-07-31T07:45:07.889Z,15.60
2018-07-31T07:46:08.000Z,15.63
2018-07-31T07:47:07.797Z,15.63
2018-07-31T07:48:07.805Z,15.66
2018-07-31T07:49:07.816Z,15.62
2018-07-31T07:50:07.834Z,15.55
2018-07-31T07:51:07.885Z,15.52
2018-07-31T07:52:07.871Z,15.60
2018-07-31T07:53:07.897Z,15.48
2018-07-31T07:54:07.985Z,15.51
2018-07-31T07:55:07.930Z,15.43
2018-07-31T07:56:08.165Z,15.57
2018-07-31T07:57:07.914Z,15.55
2018-07-31T07:58:08.042Z,15.51
2018-07-31T07:59:07.924Z,15.48
2018-07-31T08:00:08.069Z,15.60
2018-07-31T08:01:08.052Z,15.47
2018-07-31T08:02:07.963Z,15.45
2018-07-31T08:03:08.014Z,15.44
2018-07-31T08:04:08.082Z,15.44
2018-07-31T08:05:08.003Z,15.48
2018-07-31T08:06:08.127Z,15.47
2018-07-31T08:07:08.045Z,15.45
2018-07-31T08:08:08.037Z,15.62
2018-07-31T08:09:08.045Z,15.57
2018-07-31T08:10:08.183Z,15.54
2018-07-31T08:11:08.175Z,15.54
2018-07-31T08:12:08.136Z,15.63
2018-07-31T08:13:08.098Z,15.51
2018-07-31T08:14:08.114Z,15.47
2018-07-31T08:15:08.166Z,15.51
2018-07-31T08:16:08.176Z,15.48
2018-07-31T08:17:08.261Z,15.41
2018-07-31T08:18:08.279Z,15.44
2018-07-31T08:19:08.163Z,15.39
2018-07-31T08:20:08.180Z,15.45
2018-07-31T08:21:08.194Z,15.39
2018-07-31T08:22:08.326Z,15.43
2018-07-31T08:23:08.384Z,15.44
2018-07-31T08:24:08.220Z,15.35
2018-07-31T08:25:08.229Z,15.32
2018-07-31T08:26:08.261Z,15.29
2018-07-31T08:27:08.268Z,15.27
2018-07-31T08:28:08.418Z,15.18
2018-07-31T08:29:08.500Z,15.27
2018-07-31T08:30:08.296Z,15.15
2018-07-31T08:31:08.321Z,15.18
2018-07-31T08:32:08.314Z,15.19
2018-07-31T08:33:08.335Z,15.17
2018-07-31T08:34:08.495Z,15.14
2018-07-31T08:35:08.471Z,15.08
2018-07-31T08:36:08.372Z,15.15
2018-07-31T08:37:08.500Z,15.00
2018-07-31T08:38:08.379Z,15.07
2018-07-31T08:39:08.502Z,15.02
2018-07-31T08:40:08.451Z,14.94
2018-07-31T08:41:08.436Z,15.00
2018-07-31T08:42:08.436Z,15.02
2018-07-31T08:43:08.569Z,15.05
2018-07-31T08:44:08.560Z,14.97
2018-07-31T08:45:08.466Z,14.89
2018-07-31T08:46:08.482Z,14.92
2018-07-31T08:47:08.502Z,14.87
2018-07-31T08:48:08.513Z,14.85
2018-07-31T08:49:08.604Z,14.79
2018-07-31T08:50:08.543Z,14.81
2018-07-31T08:51:08.576Z,14.71
2018-07-31T08:52:08.553Z,14.73
2018-07-31T08:53:08.570Z,14.71
2018-07-31T08:54:08.670Z,14.73
2018-07-31T08:55:08.581Z,14.70
2018-07-31T08:56:08.713Z,14.79
2018-07-31T08:57:08.617Z,14.70
2018-07-31T08:58:08.662Z,14.78
2018-07-31T08:59:08.723Z,14.74
2018-07-31T09:00:08.763Z,14.71
2018-07-31T09:01:08.652Z,14.73
2018-07-31T09:02:08.672Z,14.85
2018-07-31T09:03:08.795Z,14.82
2018-07-31T09:04:08.688Z,14.79
2018-07-31T09:05:08.800Z,14.85
2018-07-31T09:06:08.742Z,14.70
2018-07-31T09:07:08.710Z,14.70
2018-07-31T09:08:08.842Z,14.68
2018-07-31T09:09:08.864Z,14.68
2018-07-31T09:10:08.747Z,14.61
2018-07-31T09:11:08.885Z,14.73
2018-07-31T09:12:08.896Z,14.70
2018-07-31T09:13:08.797Z,14.63
2018-07-31T09:14:08.801Z,14.68
2018-07-31T09:15:08.807Z,14.71
2018-07-31T09:16:08.966Z,14.66
2018-07-31T09:17:08.836Z,14.63
2018-07-31T09:18:08.975Z,14.56
2018-07-31T09:19:08.844Z,14.66
2018-07-31T09:20:08.993Z,14.63
2018-07-31T09:21:08.997Z,14.59
2018-07-31T09:22:09.102Z,14.59
2018-07-31T09:23:08.893Z,14.63
2018-07-31T09:24:08.913Z,14.63
2018-07-31T09:25:09.043Z,14.49
2018-07-31T09:26:08.942Z,14.53
2018-07-31T09:27:09.114Z,14.41
2018-07-31T09:28:08.961Z,14.38
2018-07-31T09:29:08.970Z,14.26
2018-07-31T09:30:08.985Z,14.31
2018-07-31T09:31:09.140Z,14.38
2018-07-31T09:32:08.989Z,14.34
2018-07-31T09:33:09.007Z,14.31
2018-07-31T09:34:09.144Z,14.30
2018-07-31T09:35:09.022Z,14.34
2018-07-31T09:36:09.130Z,14.37
2018-07-31T09:37:09.174Z,14.34
2018-07-31T09:38:09.155Z,14.34
2018-07-31T09:39:09.071Z,14.36
2018-07-31T09:40:09.091Z,14.33
2018-07-31T09:41:09.361Z,14.25
2018-07-31T09:42:09.228Z,14.31
2018-07-31T09:43:09.136Z,14.19
2018-07-31T09:44:09.132Z,14.25
2018-07-31T09:45:09.142Z,14.26
2018-07-31T09:46:09.253Z,14.26
2018-07-31T09:47:09.162Z,14.25
2018-07-31T09:48:09.156Z,14.30
2018-07-31T09:49:09.221Z,14.23
2018-07-31T09:50:09.196Z,14.20
2018-07-31T09:51:09.399Z,14.22
2018-07-31T09:52:09.232Z,14.38
2018-07-31T09:53:09.228Z,14.34
2018-07-31T09:54:09.228Z,14.31
2018-07-31T09:55:09.242Z,14.34
2018-07-31T09:56:09.501Z,14.30
2018-07-31T09:57:09.352Z,14.34
2018-07-31T09:58:09.323Z,14.38
2018-07-31T09:59:09.316Z,14.40
2018-07-31T10:00:09.422Z,14.36
2018-07-31T10:01:09.414Z,14.38
2018-07-31T10:02:09.342Z,14.41
2018-07-31T10:03:09.337Z,14.38
2018-07-31T10:04:09.465Z,14.49
2018-07-31T10:05:09.554Z,14.48
2018-07-31T10:06:09.631Z,14.37
2018-07-31T10:07:09.389Z,14.41
2018-07-31T10:08:09.376Z,14.38
2018-07-31T10:09:09.410Z,14.45
2018-07-31T10:10:09.527Z,14.52
2018-07-31T10:11:09.630Z,14.52
2018-07-31T10:12:09.435Z,14.49
2018-07-31T10:13:09.443Z,14.49
2018-07-31T10:14:09.571Z,14.52
2018-07-31T10:15:09.585Z,14.52
2018-07-31T10:16:09.582Z,14.53
2018-07-31T10:17:09.488Z,14.58
2018-07-31T10:18:09.588Z,14.53
2018-07-31T10:19:09.546Z,14.55
2018-07-31T10:20:09.550Z,14.52
2018-07-31T10:21:09.591Z,14.53
2018-07-31T10:22:09.662Z,14.40
2018-07-31T10:23:09.556Z,14.51
2018-07-31T10:24:09.706Z,14.45
2018-07-31T10:25:09.581Z,14.61
2018-07-31T10:26:09.589Z,14.55
2018-07-31T10:27:09.610Z,14.51
2018-07-31T10:28:09.608Z,14.66
2018-07-31T10:29:09.663Z,14.63
2018-07-31T10:30:09.673Z,14.66
2018-07-31T10:31:09.777Z,14.63
2018-07-31T10:32:09.656Z,14.62
2018-07-31T10:33:09.673Z,14.63
2018-07-31T10:34:09.797Z,14.55
2018-07-31T10:35:09.726Z,14.61
2018-07-31T10:36:09.792Z,14.58
2018-07-31T10:37:09.832Z,14.55
2018-07-31T10:38:09.839Z,14.56
2018-07-31T10:39:09.730Z,14.59
2018-07-31T10:40:09.783Z,14.63
2018-07-31T10:41:09.842Z,14.58
2018-07-31T10:42:09.763Z,14.59
2018-07-31T10:43:09.769Z,14.61
2018-07-31T10:44:09.775Z,14.53
2018-07-31T10:45:09.790Z,14.59
2018-07-31T10:46:10.039Z,14.67
2018-07-31T10:47:09.937Z,14.68
2018-07-31T10:48:09.957Z,14.66
2018-07-31T10:49:09.843Z,14.71
2018-07-31T10:50:09.840Z,14.71
2018-07-31T10:51:10.087Z,14.77
2018-07-31T10:52:09.912Z,14.81
2018-07-31T10:53:09.880Z,14.68
2018-07-31T10:54:09.915Z,14.71
2018-07-31T10:55:10.052Z,14.78
2018-07-31T10:56:10.237Z,14.77
2018-07-31T10:57:09.937Z,14.79
2018-07-31T10:58:09.966Z,14.86
2018-07-31T10:59:09.968Z,14.93
2018-07-31T11:00:09.981Z,14.94
2018-07-31T11:01:10.035Z,14.97
2018-07-31T11:02:10.189Z,15.08
2018-07-31T11:03:10.191Z,15.08
2018-07-31T11:04:10.133Z,15.07
2018-07-31T11:05:10.027Z,15.07
2018-07-31T11:06:10.031Z,15.05
2018-07-31T11:07:10.286Z,15.05
2018-07-31T11:08:10.096Z,15.00
2018-07-31T11:09:10.066Z,15.15
2018-07-31T11:10:10.121Z,15.15
2018-07-31T11:11:10.096Z,15.15
2018-07-31T11:12:10.334Z,15.11
2018-07-31T11:13:10.171Z,15.27
2018-07-31T11:14:10.121Z,15.23
2018-07-31T11:15:10.116Z,15.27
2018-07-31T11:16:10.149Z,15.25
2018-07-31T11:17:10.352Z,15.29
2018-07-31T11:18:10.292Z,15.26
2018-07-31T11:19:10.189Z,15.26
2018-07-31T11:20:10.188Z,15.25
2018-07-31T11:21:10.298Z,15.35
2018-07-31T11:22:10.408Z,15.23
2018-07-31T11:23:10.261Z,15.30
2018-07-31T11:24:10.236Z,15.36
2018-07-31T11:25:10.245Z,15.44
2018-07-31T11:26:10.299Z,15.47
2018-07-31T11:27:10.522Z,15.45
2018-07-31T11:28:10.283Z,15.45
2018-07-31T11:29:10.304Z,15.45
2018-07-31T11:30:10.311Z,15.47
2018-07-31T11:31:10.307Z,15.39
2018-07-31T11:32:10.419Z,15.43
2018-07-31T11:33:10.450Z,15.45
2018-07-31T11:34:10.476Z,15.47
2018-07-31T11:35:10.363Z,15.48
2018-07-31T11:36:10.498Z,15.66
2018-07-31T11:37:10.487Z,16.24
2018-07-31T11:38:10.399Z,16.62
2018-07-31T11:39:10.418Z,17.13
2018-07-31T11:40:10.418Z,17.50
2018-07-31T11:41:10.561Z,17.88
2018-07-31T11:42:10.555Z,18.26
2018-07-31T11:43:10.477Z,18.36
2018-07-31T11:44:10.465Z,18.33
2018-07-31T11:45:10.613Z,18.03
2018-07-31T11:46:10.554Z,17.78
2018-07-31T11:47:10.732Z,17.38
2018-07-31T11:48:10.539Z,17.14
2018-07-31T11:49:10.595Z,16.97
2018-07-31T11:50:10.693Z,16.66
2018-07-31T11:51:10.566Z,16.58
2018-07-31T11:52:10.809Z,16.46
2018-07-31T11:53:10.596Z,16.34
2018-07-31T11:54:10.608Z,16.26
2018-07-31T11:55:10.643Z,16.28
2018-07-31T11:56:10.652Z,16.26
2018-07-31T11:57:10.853Z,16.18
2018-07-31T11:58:10.792Z,16.09
2018-07-31T11:59:10.678Z,16.17
2018-07-31T12:00:10.702Z,16.12
2018-07-31T12:01:10.721Z,16.12
2018-07-31T12:02:10.736Z,16.21
2018-07-31T12:03:10.999Z,16.12
2018-07-31T12:04:10.889Z,16.12
2018-07-31T12:05:10.765Z,16.10
2018-07-31T12:06:10.769Z,16.03
2018-07-31T12:07:10.916Z,15.98
2018-07-31T12:08:11.127Z,15.94
2018-07-31T12:09:10.826Z,15.92
2018-07-31T12:10:10.861Z,15.91
2018-07-31T12:11:10.968Z,15.99
2018-07-31T12:12:10.843Z,16.02
2018-07-31T12:13:11.069Z,16.10
2018-07-31T12:14:10.894Z,16.21
2018-07-31T12:15:10.882Z,16.40
2018-07-31T12:16:10.912Z,16.39
2018-07-31T12:17:10.926Z,16.57
2018-07-31T12:18:11.158Z,16.72
2018-07-31T12:19:11.005Z,16.76
2018-07-31T12:20:10.978Z,16.82
2018-07-31T12:21:10.963Z,16.58
2018-07-31T12:22:11.000Z,16.62
2018-07-31T12:23:11.095Z,16.69
2018-07-31T12:24:11.019Z,16.79
2018-07-31T12:25:11.152Z,17.01
2018-07-31T12:26:11.170Z,17.07
2018-07-31T12:27:11.063Z,17.10
2018-07-31T12:28:11.282Z,17.31
2018-07-31T12:29:11.090Z,17.23
2018-07-31T12:30:11.112Z,17.16
2018-07-31T12:31:11.157Z,17.09
2018-07-31T12:32:11.136Z,17.10
2018-07-31T12:33:11.353Z,17.07
2018-07-31T12:34:11.162Z,16.87
2018-07-31T12:35:11.170Z,16.87
2018-07-31T12:36:11.228Z,16.94
2018-07-31T12:37:11.204Z,16.89
2018-07-31T12:38:11.391Z,16.84
2018-07-31T12:39:11.291Z,16.73
2018-07-31T12:40:11.277Z,16.74
2018-07-31T12:41:11.273Z,16.73
2018-07-31T12:42:11.290Z,16.82
2018-07-31T12:43:11.398Z,16.95
2018-07-31T12:44:11.450Z,16.97
2018-07-31T12:45:11.315Z,17.07
2018-07-31T12:46:11.328Z,16.98
2018-07-31T12:47:11.339Z,17.04
2018-07-31T12:48:11.464Z,17.05
2018-07-31T12:49:11.368Z,16.94
2018-07-31T12:50:11.521Z,16.79
2018-07-31T12:51:11.425Z,16.91
2018-07-31T12:52:11.445Z,17.02
2018-07-31T12:53:11.521Z,17.16